Camp Dix, Kentucky
Current Conditions -  °F | °C
As of 11:30 AM on Monday 26 Jan 2015 (Local Time) from KSYM Reporting Station
Overcast Overcast  
Wind Chill: 11°   Ceiling: 1000
Heat Index: 23°   Visibility: 7mi
Dew Point: 19°   Wind: 13mph
Humidity: 86%   Direction: 300°WNW
Pressure: 29.9"   Gusts: NA
Location:  38.48°N, 83.29°W
Report Text: KSYM 261630Z AUTO 30011KT 7SM OVC010 M05/M07 A2990 RMK AO2
Loading
Personal Weather Stations






























Interactive Weather Map New forecast layout! Learn more

10-Day Weather Forecast

Advertisements
Track Severe Weather on mobile